This is the latest recevied weather packets stored in our database for station/object PY2VE-13. If no packets are shown the sender has not sent any weather packets the latest 10 day(s).
| Time | Temp. | Humidity | Pressure | Rain* | Wind** | Luminosity | Snow |
|---|---|---|---|---|---|---|---|
| 1777320212 | 30° C | 42% | 1016.6 hPa | - | - | - | - |
| 1777319312 | 31.11° C | 40% | 1016.5 hPa | - | - | - | - |
| 1777318412 | 30.56° C | 40% | 1016.3 hPa | - | - | - | - |
| 1777317512 | 31.11° C | 39% | 1016.2 hPa | - | - | - | - |
| 1777316612 | 31.67° C | 38% | 1015.9 hPa | - | - | - | - |
| 1777315712 | 33.89° C | 34% | 1015.3 hPa | - | - | - | - |
| 1777314812 | 32.78° C | 37% | 1015.5 hPa | - | - | - | - |
| 1777313912 | 32.22° C | 36% | 1015.8 hPa | - | - | - | - |
| 1777313012 | 32.22° C | 37% | 1015.7 hPa | - | - | - | - |
| 1777312112 | 31.67° C | 37% | 1015.9 hPa | - | - | - | - |
| 1777311212 | 31.67° C | 37% | 1015.9 hPa | - | - | - | - |
| 1777310312 | 31.11° C | 38% | 1016.2 hPa | - | - | - | - |
| 1777309412 | 31.67° C | 37% | 1016.1 hPa | - | - | - | - |
| 1777308512 | 32.22° C | 38% | 1016.3 hPa | - | - | - | - |
| 1777307612 | 31.11° C | 41% | 1016.5 hPa | - | - | - | - |
| 1777306712 | 30.56° C | 43% | 1016.7 hPa | - | - | - | - |
| 1777305812 | 31.11° C | 39% | 1016.7 hPa | - | - | - | - |
| 1777304912 | 31.67° C | 40% | 1016.7 hPa | - | - | - | - |
| 1777304012 | 31.67° C | 39% | 1016.7 hPa | - | - | - | - |
| 1777303112 | 32.22° C | 38% | 1016.8 hPa | - | - | - | - |
| 1777302212 | 31.67° C | 39% | 1016.9 hPa | - | - | - | - |
| 1777301312 | 30° C | 42% | 1017.1 hPa | - | - | - | - |
| 1777300412 | 30° C | 42% | 1017.3 hPa | - | - | - | - |
| 1777299511 | 30° C | 44% | 1017.6 hPa | - | - | - | - |
| 1777298611 | 30° C | 43% | 1018.2 hPa | - | - | - | - |
* Rain since midnight (hover to see other rain measurements)
** Current wind speed in m/s (hover to see current wind gust speed)